CDT,Max TemperatureF,Mean TemperatureF,Min TemperatureF,Max Dew PointF,MeanDew PointF,Min DewpointF,Max Humidity, Mean Humidity, Min Humidity, Max Sea Level PressureIn, Mean Sea Level PressureIn, Min Sea Level PressureIn, Max VisibilityMiles, Mean VisibilityMiles, Min VisibilityMiles, Max Wind SpeedMPH, Mean Wind SpeedMPH, Max Gust SpeedMPH,PrecipitationIn, CloudCover, Events, WindDirDegrees
2013-7-1,84,72,59,52,48,43,75,47,25,30.16,30.10,30.07,10,9,6,14,8,21,0.00,0,,29
2013-7-2,86,68,53,53,48,43,86,50,24,30.14,30.09,30.04,10,10,9,12,6,17,0.00,1,,10
2013-7-3,86,72,61,55,50,46,75,47,26,30.15,30.02,29.92,10,10,10,13,4,23,0.00,2,Rain-Thunderstorm,186
2013-7-4,91,78,64,55,51,47,63,43,22,29.99,29.92,29.85,10,10,10,16,7,21,0.00,1,,148
2013-7-5,93,81,69,59,57,53,70,45,30,29.89,29.84,29.77,10,10,8,28,15,34,0.00,0,,166
2013-7-6,87,77,70,67,64,59,81,63,51,29.86,29.82,29.78,10,8,5,22,13,34,0.00,3,Rain,159
2013-7-7,100,87,75,64,60,55,64,44,23,29.90,29.86,29.81,10,10,9,23,16,32,0.00,0,,178
2013-7-8,102,88,75,65,62,57,69,44,24,30.04,29.93,29.87,10,10,9,21,13,32,0.00,0,,173
2013-7-9,108,92,77,67,63,58,71,46,21,30.05,29.91,29.78,10,10,7,31,14,41,0.00,1,Rain-Thunderstorm,200
2013-7-10,100,84,68,70,66,61,87,56,30,29.98,29.94,29.89,10,10,10,13,5,18,0.00,0,,71
2013-7-11,95,83,73,67,63,60,71,51,33,30.03,29.94,29.87,10,10,10,18,11,26,0.00,0,,113
2013-7-12,102,86,71,67,64,62,73,49,28,29.92,29.89,29.83,10,10,10,20,11,25,0.00,0,,150
2013-7-13,102,90,77,68,66,63,74,50,29,29.92,29.88,29.81,10,10,10,21,11,25,0.00,0,,162
2013-7-14,82,75,68,70,68,65,94,82,56,30.07,30.00,29.86,10,7,1,15,8,21,0.51,5,Rain-Thunderstorm,172
2013-7-15,82,72,64,70,64,60,90,76,52,30.16,30.10,30.06,10,9,2,20,6,29,0.01,2,Rain-Thunderstorm,102
2013-7-16,89,76,64,68,64,61,90,68,43,30.32,30.20,30.15,10,10,10,16,6,21,0.00,1,Thunderstorm,143
2013-7-17,91,78,66,71,68,65,93,71,46,30.35,30.24,30.16,10,10,6,12,2,16,0.00,3,Rain,177
2013-7-18,93,80,68,70,66,62,93,63,37,30.17,30.08,29.96,10,10,9,21,7,29,0.00,1,,189
2013-7-19,96,82,70,67,65,62,84,55,33,29.99,29.91,29.82,10,10,10,15,8,24,0.00,0,,187
2013-7-20,98,84,71,69,66,61,90,65,31,29.91,29.85,29.76,10,10,9,30,7,38,0.04,1,Rain-Thunderstorm,174
2013-7-21,87,79,71,71,69,67,90,77,57,29.93,29.84,29.75,10,10,10,12,9,,0.03,6,Rain,156
2013-7-22,88,80,72,72,68,63,93,71,51,29.90,29.80,29.74,10,9,4,16,7,21,0.01,2,Rain-Thunderstorm,174
2013-7-23,93,82,71,70,65,55,91,62,37,29.99,29.84,29.72,10,8,1,41,14,53,0.72,3,Rain-Hail-Thunderstorm,53
2013-7-24,89,77,66,70,65,57,93,72,35,30.08,29.98,29.89,10,10,5,14,9,18,0.03,1,Rain-Thunderstorm,43
2013-7-25,84,76,68,72,68,60,87,76,59,30.08,30.01,29.95,10,9,2,13,7,17,0.06,3,Rain-Thunderstorm,161
2013-7-26,86,74,64,68,64,60,94,76,43,30.10,30.04,29.95,10,9,2,24,11,30,0.19,4,Rain-Thunderstorm,8
2013-7-27,79,69,60,60,56,53,90,69,52,30.11,30.04,29.96,10,10,6,15,6,18,0.07,3,Rain-Thunderstorm,69
2013-7-28,66,62,59,63,59,56,94,91,86,30.09,30.01,29.95,10,7,2,14,7,20,1.23,8,Rain,108
2013-7-29,77,69,63,72,68,59,94,91,83,29.99,29.93,29.83,10,6,1,15,9,20,0.82,7,Rain-Thunderstorm,73
2013-7-30,82,75,69,70,69,67,96,86,65,30.10,30.02,29.93,10,6,0,8,5,,0.00,6,Fog,18
2013-7-31,84,73,62,72,66,61,100,86,56,30.19,30.12,30.04,10,5,0,7,2,,0.00,4,Fog,8